Time;durP1;ratioP1;P1;durP2;ratioP2;P2;SDS_P1;SDS_P2;PMS_P1;PMS_P2;Temp;Humidity;BMP_temperature;BMP_pressure;BME280_temperature;BME280_humidity;BME280_pressure;Samples;Min_cycle;Max_cycle;Signal;HPM_P1;HPM_P2
2023/05/01 00:02:01;;;;;;;;;;;17.60;65.20;;;;;;5096984;28;19919;-86
2023/05/01 00:04:27;;;;;;;;;;;17.50;65.20;;;;;;5097877;28;19908;-87
2023/05/01 00:06:53;;;;;;;;;;;17.50;65.30;;;;;;5098101;28;19938;-87
2023/05/01 00:09:19;;;;;;;;;;;17.50;65.30;;;;;;5132041;27;20212;-87
2023/05/01 00:11:45;;;;;;;;;;;17.50;65.30;;;;;;5114278;28;20311;-87
2023/05/01 00:14:11;;;;;;;;;;;17.50;65.40;;;;;;5097884;28;19956;-87
2023/05/01 00:16:36;;;;;;;;;;;17.50;65.50;;;;;;5096658;28;20231;-87
2023/05/01 00:19:03;;;;;;;;;;;17.50;65.50;;;;;;5098364;28;19972;-87
2023/05/01 00:21:29;;;;;;;;;;;17.50;65.50;;;;;;5096804;28;19912;-87
2023/05/01 00:23:55;;;;;;;;;;;17.50;65.50;;;;;;5097304;28;20281;-86
2023/05/01 00:26:21;;;;;;;;;;;17.40;65.50;;;;;;5099016;28;19923;-87
2023/05/01 00:28:46;;;;;;;;;;;17.40;65.60;;;;;;5116355;28;19931;-86
2023/05/01 00:31:12;;;;;;;;;;;17.40;65.70;;;;;;5133315;27;20006;-86
2023/05/01 00:33:37;;;;;;;;;;;17.40;65.70;;;;;;5098150;28;19908;-87
2023/05/01 00:36:03;;;;;;;;;;;17.40;65.70;;;;;;5098645;28;19915;-86
2023/05/01 00:38:28;;;;;;;;;;;17.40;65.80;;;;;;5115633;28;19988;-86
2023/05/01 00:40:54;;;;;;;;;;;17.40;65.90;;;;;;5096923;28;19916;-86
2023/05/01 00:43:20;;;;;;;;;;;17.40;65.90;;;;;;5114992;28;19919;-86
2023/05/01 00:45:46;;;;;;;;;;;17.30;65.90;;;;;;5062810;28;20362;-86
2023/05/01 00:48:12;;;;;;;;;;;17.30;66.00;;;;;;5094641;28;20201;-86
2023/05/01 00:50:37;;;;;;;;;;;17.30;66.00;;;;;;5095984;28;19908;-86
2023/05/01 00:53:03;;;;;;;;;;;17.30;66.00;;;;;;5111507;28;19919;-87
2023/05/01 00:55:30;;;;;;;;;;;17.30;66.00;;;;;;5094382;28;19918;-86
2023/05/01 00:57:56;;;;;;;;;;;17.30;66.00;;;;;;5100191;28;20112;-86
2023/05/01 01:00:23;;;;;;;;;;;17.30;66.10;;;;;;5100484;28;19911;-86
2023/05/01 01:02:49;;;;;;;;;;;17.30;66.10;;;;;;5097745;28;19907;-86
2023/05/01 01:05:15;;;;;;;;;;;17.30;66.20;;;;;;5097466;28;20339;-86
2023/05/01 01:07:46;;;;;;;;;;;17.30;66.30;;;;;;5098564;28;19915;-86
2023/05/01 01:10:17;;;;;;;;;;;17.20;66.20;;;;;;5115937;28;19908;-86
2023/05/01 01:12:49;;;;;;;;;;;17.20;66.20;;;;;;5097667;28;19908;-86
2023/05/01 01:15:24;;;;;;;;;;;17.20;66.30;;;;;;5098689;28;19908;-86
2023/05/01 01:18:03;;;;;;;;;;;17.20;66.40;;;;;;5099243;28;19908;-86
2023/05/01 01:21:08;;;;;;;;;;;17.20;66.40;;;;;;5117642;28;19915;-87
2023/05/01 01:23:41;;;;;;;;;;;17.20;66.50;;;;;;5094983;28;20003;-87
2023/05/01 01:26:12;;;;;;;;;;;17.20;66.50;;;;;;5093825;28;19916;-86
2023/05/01 01:28:38;;;;;;;;;;;17.10;66.40;;;;;;5107114;28;19915;-86
2023/05/01 01:31:16;;;;;;;;;;;17.20;66.60;;;;;;5100272;28;19919;-86
2023/05/01 01:34:01;;;;;;;;;;;17.10;66.50;;;;;;5100338;28;19908;-87
2023/05/01 01:36:27;;;;;;;;;;;17.10;66.60;;;;;;5099611;28;20296;-86
2023/05/01 01:39:15;;;;;;;;;;;17.10;66.50;;;;;;5099202;28;19908;-86
2023/05/01 01:41:44;;;;;;;;;;;17.10;66.60;;;;;;5095309;28;20183;-86
2023/05/01 01:44:30;;;;;;;;;;;17.10;66.70;;;;;;5132561;27;20082;-87
2023/05/01 01:46:57;;;;;;;;;;;17.10;66.70;;;;;;5116469;28;19920;-87
2023/05/01 01:49:25;;;;;;;;;;;17.10;66.70;;;;;;5117521;28;19908;-87
2023/05/01 01:51:52;;;;;;;;;;;17.00;66.70;;;;;;5117950;28;20027;-87
2023/05/01 01:54:20;;;;;;;;;;;17.00;66.70;;;;;;5100842;28;19946;-86
2023/05/01 01:56:47;;;;;;;;;;;17.00;66.80;;;;;;5100860;28;19908;-87
2023/05/01 01:59:14;;;;;;;;;;;17.00;66.80;;;;;;5101970;28;19919;-87
2023/05/01 02:01:40;;;;;;;;;;;17.00;66.90;;;;;;5101736;28;19912;-87
2023/05/01 02:04:07;;;;;;;;;;;17.00;67.00;;;;;;5101576;28;19969;-88
2023/05/01 02:06:34;;;;;;;;;;;17.00;67.00;;;;;;5100337;28;19923;-87
2023/05/01 02:09:01;;;;;;;;;;;17.00;67.10;;;;;;5100685;28;19908;-87
2023/05/01 02:11:27;;;;;;;;;;;16.90;67.00;;;;;;5099480;28;19907;-87
2023/05/01 02:13:53;;;;;;;;;;;16.90;67.10;;;;;;5100529;28;20131;-87
2023/05/01 02:16:20;;;;;;;;;;;16.90;67.10;;;;;;5100752;28;19916;-87
2023/05/01 02:18:46;;;;;;;;;;;16.90;67.10;;;;;;5100381;28;19938;-87
2023/05/01 02:21:12;;;;;;;;;;;16.90;67.10;;;;;;5099792;28;19919;-87
2023/05/01 02:23:37;;;;;;;;;;;16.90;67.20;;;;;;5100732;28;19908;-87
2023/05/01 02:26:04;;;;;;;;;;;16.90;67.20;;;;;;5100157;28;19919;-87
2023/05/01 02:28:30;;;;;;;;;;;16.90;67.30;;;;;;5101601;28;20253;-87
2023/05/01 02:30:56;;;;;;;;;;;16.90;67.30;;;;;;5101540;28;19911;-87
2023/05/01 02:33:22;;;;;;;;;;;16.90;67.30;;;;;;5102066;28;20184;-87
2023/05/01 02:35:48;;;;;;;;;;;16.90;67.40;;;;;;5135705;27;20273;-87
2023/05/01 02:38:15;;;;;;;;;;;16.80;67.30;;;;;;5099534;28;20008;-86
2023/05/01 02:40:45;;;;;;;;;;;16.80;67.40;;;;;;5099471;28;19911;-86
2023/05/01 02:43:11;;;;;;;;;;;16.80;67.40;;;;;;5100280;28;19915;-87
2023/05/01 02:45:39;;;;;;;;;;;16.80;67.50;;;;;;5100437;28;19907;-86
2023/05/01 02:48:05;;;;;;;;;;;16.80;67.50;;;;;;5099436;28;19908;-87
2023/05/01 02:50:33;;;;;;;;;;;16.80;67.50;;;;;;5099487;28;19914;-86
2023/05/01 02:52:59;;;;;;;;;;;16.80;67.50;;;;;;5116675;28;19943;-86
2023/05/01 02:55:25;;;;;;;;;;;16.70;67.50;;;;;;5099923;28;20533;-86
2023/05/01 02:57:51;;;;;;;;;;;16.80;67.70;;;;;;5133266;27;19908;-87
2023/05/01 03:00:17;;;;;;;;;;;16.70;67.50;;;;;;5099046;28;19930;-87
2023/05/01 03:02:43;;;;;;;;;;;16.70;68.20;;;;;;5099159;28;19958;-86
2023/05/01 03:05:08;;;;;;;;;;;16.70;67.60;;;;;;5133304;27;20284;-86
2023/05/01 03:07:34;;;;;;;;;;;16.70;67.70;;;;;;5116404;28;19908;-87
2023/05/01 03:10:02;;;;;;;;;;;16.70;67.70;;;;;;5099874;28;20186;-86
2023/05/01 03:12:28;;;;;;;;;;;16.70;67.70;;;;;;5099468;28;19968;-86
2023/05/01 03:14:53;;;;;;;;;;;16.70;67.70;;;;;;5099966;28;19923;-86
2023/05/01 03:17:19;;;;;;;;;;;16.70;67.70;;;;;;5117775;28;19915;-86
2023/05/01 03:19:44;;;;;;;;;;;16.70;67.70;;;;;;5132741;27;19988;-86
2023/05/01 03:22:10;;;;;;;;;;;16.70;67.80;;;;;;5117339;28;19954;-86
2023/05/01 03:24:35;;;;;;;;;;;16.70;67.80;;;;;;5098787;28;19931;-86
2023/05/01 03:27:01;;;;;;;;;;;16.70;67.80;;;;;;5115506;28;20010;-87
2023/05/01 03:29:27;;;;;;;;;;;16.60;67.70;;;;;;5098344;28;19908;-86
2023/05/01 03:31:52;;;;;;;;;;;16.60;67.80;;;;;;5097882;28;19907;-87
2023/05/01 03:34:18;;;;;;;;;;;16.60;67.80;;;;;;5098173;28;19908;-86
2023/05/01 03:36:44;;;;;;;;;;;16.60;67.80;;;;;;5097972;28;20003;-87
2023/05/01 03:39:09;;;;;;;;;;;16.60;67.80;;;;;;5098338;28;20161;-86
2023/05/01 03:41:35;;;;;;;;;;;16.60;67.90;;;;;;5098989;28;19920;-86
2023/05/01 03:44:00;;;;;;;;;;;16.60;67.80;;;;;;5100121;28;19911;-87
2023/05/01 03:46:26;;;;;;;;;;;16.60;67.80;;;;;;5117694;28;20264;-87
2023/05/01 03:48:51;;;;;;;;;;;16.60;67.80;;;;;;5100356;28;20188;-87
2023/05/01 03:51:21;;;;;;;;;;;16.60;67.90;;;;;;5117469;28;20675;-86
2023/05/01 03:53:46;;;;;;;;;;;16.60;67.90;;;;;;5118043;28;20006;-86
2023/05/01 03:56:12;;;;;;;;;;;16.50;67.90;;;;;;5099459;28;19970;-86
2023/05/01 03:58:37;;;;;;;;;;;16.50;67.90;;;;;;5099874;28;20277;-86
2023/05/01 04:01:03;;;;;;;;;;;16.50;67.90;;;;;;5117113;28;19923;-86
2023/05/01 04:03:29;;;;;;;;;;;16.50;67.80;;;;;;5116877;28;20284;-86
2023/05/01 04:05:55;;;;;;;;;;;16.50;67.90;;;;;;5099375;28;19908;-87
2023/05/01 04:08:20;;;;;;;;;;;16.50;67.80;;;;;;5132019;27;19916;-86
2023/05/01 04:10:46;;;;;;;;;;;16.50;67.90;;;;;;5097706;28;19908;-86
2023/05/01 04:13:12;;;;;;;;;;;16.50;67.80;;;;;;5115467;28;19915;-87
2023/05/01 04:15:37;;;;;;;;;;;16.50;67.80;;;;;;5098802;28;19951;-87
2023/05/01 04:18:03;;;;;;;;;;;16.50;67.90;;;;;;5098038;28;19908;-86
2023/05/01 04:20:29;;;;;;;;;;;16.50;67.90;;;;;;5098019;28;19912;-86
2023/05/01 04:22:54;;;;;;;;;;;16.50;67.90;;;;;;5115917;28;19943;-87
2023/05/01 04:25:20;;;;;;;;;;;16.50;67.90;;;;;;5098391;28;19908;-86
2023/05/01 04:27:45;;;;;;;;;;;16.50;67.90;;;;;;5131688;27;19908;-86
2023/05/01 04:30:11;;;;;;;;;;;16.50;67.90;;;;;;5098249;28;19972;-86
2023/05/01 04:32:37;;;;;;;;;;;16.40;67.80;;;;;;5113490;28;19907;-86
2023/05/01 04:35:03;;;;;;;;;;;16.50;67.90;;;;;;5116024;28;19954;-86
2023/05/01 04:37:29;;;;;;;;;;;16.50;67.80;;;;;;5100286;28;19950;-86
2023/05/01 04:39:54;;;;;;;;;;;16.50;67.80;;;;;;5134010;27;19955;-86
2023/05/01 04:42:20;;;;;;;;;;;16.40;67.70;;;;;;5125573;28;19919;-86
2023/05/01 04:44:46;;;;;;;;;;;16.50;67.80;;;;;;5101072;28;20285;-86
2023/05/01 04:47:12;;;;;;;;;;;16.50;67.80;;;;;;5100238;28;19915;-86
2023/05/01 04:49:38;;;;;;;;;;;16.50;67.70;;;;;;5100951;28;19943;-86
2023/05/01 04:52:03;;;;;;;;;;;16.40;67.70;;;;;;5134043;27;19907;-86
2023/05/01 04:54:29;;;;;;;;;;;16.50;67.70;;;;;;5118178;28;19908;-86
2023/05/01 04:56:54;;;;;;;;;;;16.50;67.70;;;;;;5100248;28;19964;-86
2023/05/01 04:59:20;;;;;;;;;;;16.50;67.60;;;;;;5134290;27;20232;-86
2023/05/01 05:01:45;;;;;;;;;;;16.50;67.60;;;;;;5101354;28;19972;-86
2023/05/01 05:04:11;;;;;;;;;;;16.50;67.50;;;;;;5101199;28;19976;-86
2023/05/01 05:06:36;;;;;;;;;;;16.40;67.40;;;;;;5101274;28;19973;-86
2023/05/01 05:09:02;;;;;;;;;;;16.50;67.40;;;;;;5101620;28;20304;-86
2023/05/01 05:11:28;;;;;;;;;;;16.50;67.30;;;;;;5101486;28;19973;-86
2023/05/01 05:13:53;;;;;;;;;;;16.50;67.30;;;;;;5100373;28;20032;-86
2023/05/01 05:16:19;;;;;;;;;;;16.50;67.10;;;;;;5099830;28;19908;-86
2023/05/01 05:18:44;;;;;;;;;;;16.50;67.10;;;;;;5099365;28;19908;-87
2023/05/01 05:21:10;;;;;;;;;;;16.50;66.90;;;;;;5133623;27;19911;-86
2023/05/01 05:23:36;;;;;;;;;;;16.50;66.80;;;;;;5134142;27;19907;-86
2023/05/01 05:26:01;;;;;;;;;;;16.60;66.70;;;;;;5117404;28;19923;-86
2023/05/01 05:28:27;;;;;;;;;;;16.60;66.60;;;;;;5100708;28;19907;-86
2023/05/01 05:30:56;;;;;;;;;;;16.60;66.50;;;;;;5118252;28;19930;-86
2023/05/01 05:33:23;;;;;;;;;;;16.60;66.30;;;;;;5100918;28;19908;-86
2023/05/01 05:35:52;;;;;;;;;;;16.60;66.20;;;;;;5100311;28;20257;-86
2023/05/01 05:38:18;;;;;;;;;;;16.70;66.10;;;;;;5100924;28;19907;-86
2023/05/01 05:40:45;;;;;;;;;;;16.70;65.80;;;;;;5098486;28;19972;-86
2023/05/01 05:43:10;;;;;;;;;;;16.70;65.70;;;;;;5116289;28;19908;-86
2023/05/01 05:45:36;;;;;;;;;;;16.70;65.60;;;;;;5099021;28;20094;-86
2023/05/01 05:48:02;;;;;;;;;;;16.80;65.50;;;;;;5100140;28;19908;-86
2023/05/01 05:50:28;;;;;;;;;;;16.80;65.30;;;;;;5098946;28;19915;-86
2023/05/01 05:52:54;;;;;;;;;;;16.80;65.30;;;;;;5098388;28;20270;-86
2023/05/01 05:55:20;;;;;;;;;;;16.80;64.90;;;;;;5097707;28;19918;-86
2023/05/01 05:57:45;;;;;;;;;;;16.90;65.00;;;;;;5098423;28;20003;-86
2023/05/01 06:00:11;;;;;;;;;;;16.90;64.80;;;;;;5098299;28;19923;-86
2023/05/01 06:02:37;;;;;;;;;;;16.90;64.50;;;;;;5097768;28;19907;-86
2023/05/01 06:05:03;;;;;;;;;;;16.90;64.30;;;;;;5099527;28;19915;-86
2023/05/01 06:07:30;;;;;;;;;;;17.00;64.30;;;;;;5100034;28;19908;-86
2023/05/01 06:10:02;;;;;;;;;;;17.00;64.10;;;;;;5116277;28;20281;-86
2023/05/01 06:12:28;;;;;;;;;;;17.00;64.00;;;;;;5099158;28;19908;-86
2023/05/01 06:14:54;;;;;;;;;;;17.00;63.80;;;;;;5098116;28;20201;-86
2023/05/01 06:17:20;;;;;;;;;;;17.00;63.50;;;;;;5100007;28;19945;-86
2023/05/01 06:19:46;;;;;;;;;;;17.10;63.60;;;;;;5133469;27;19908;-86
2023/05/01 06:22:12;;;;;;;;;;;17.10;63.50;;;;;;5117832;28;20103;-86
2023/05/01 06:24:38;;;;;;;;;;;17.10;63.40;;;;;;5099412;28;20173;-86
2023/05/01 06:27:04;;;;;;;;;;;17.20;63.20;;;;;;5096705;28;19919;-86
2023/05/01 06:29:30;;;;;;;;;;;17.20;62.90;;;;;;5099340;28;19908;-86
2023/05/01 06:31:56;;;;;;;;;;;17.30;62.70;;;;;;5098541;28;19915;-86
2023/05/01 06:34:21;;;;;;;;;;;17.30;62.50;;;;;;5097244;28;20136;-86
2023/05/01 06:36:47;;;;;;;;;;;17.40;62.20;;;;;;5133287;27;19907;-85
2023/05/01 06:39:13;;;;;;;;;;;17.50;62.00;;;;;;5098976;28;19915;-86
2023/05/01 06:41:38;;;;;;;;;;;17.50;61.60;;;;;;5098966;28;19951;-87
2023/05/01 06:44:04;;;;;;;;;;;17.60;61.90;;;;;;5097678;28;19907;-86
2023/05/01 06:46:29;;;;;;;;;;;17.70;61.00;;;;;;5098066;28;19998;-86
2023/05/01 06:48:55;;;;;;;;;;;17.80;60.60;;;;;;5096395;28;20331;-86
2023/05/01 06:51:21;;;;;;;;;;;17.90;60.00;;;;;;5129868;27;19976;-86
2023/05/01 06:53:46;;;;;;;;;;;18.00;59.60;;;;;;5096391;28;19920;-87
2023/05/01 06:56:12;;;;;;;;;;;18.30;59.20;;;;;;5096446;28;19995;-86
2023/05/01 06:58:37;;;;;;;;;;;18.40;58.60;;;;;;5096163;28;20004;-86
2023/05/01 07:01:03;;;;;;;;;;;18.50;58.20;;;;;;5096448;28;19946;-86
2023/05/01 07:03:28;;;;;;;;;;;18.50;58.00;;;;;;5113981;28;19919;-86
2023/05/01 07:05:54;;;;;;;;;;;18.60;57.90;;;;;;5095138;28;19908;-86
2023/05/01 07:08:20;;;;;;;;;;;18.50;57.60;;;;;;5093781;28;19908;-86
2023/05/01 07:10:46;;;;;;;;;;;18.50;57.70;;;;;;5093608;28;20488;-86
2023/05/01 07:13:11;;;;;;;;;;;18.60;57.50;;;;;;5095335;28;19915;-86
2023/05/01 07:15:37;;;;;;;;;;;18.60;57.50;;;;;;5094311;28;20424;-86
2023/05/01 07:18:04;;;;;;;;;;;18.60;57.30;;;;;;5093809;28;19908;-86
2023/05/01 07:20:31;;;;;;;;;;;18.70;57.30;;;;;;5111954;28;20242;-86
2023/05/01 07:22:56;;;;;;;;;;;18.80;57.10;;;;;;5113696;28;20287;-85
2023/05/01 07:25:23;;;;;;;;;;;18.80;56.80;;;;;;5093946;28;19916;-86
2023/05/01 07:27:49;;;;;;;;;;;19.00;56.70;;;;;;5113883;28;19961;-86
2023/05/01 07:30:15;;;;;;;;;;;19.00;56.40;;;;;;5095126;28;19908;-86
2023/05/01 07:32:41;;;;;;;;;;;19.20;56.20;;;;;;5112540;28;20362;-86
2023/05/01 07:35:06;;;;;;;;;;;19.30;56.20;;;;;;5094524;28;19915;-86
2023/05/01 07:37:32;;;;;;;;;;;19.30;56.00;;;;;;5093575;28;19973;-86
2023/05/01 07:39:58;;;;;;;;;;;19.50;55.80;;;;;;5128380;27;19908;-85
2023/05/01 07:42:26;;;;;;;;;;;19.70;55.40;;;;;;5094304;28;19908;-86
2023/05/01 07:44:51;;;;;;;;;;;19.90;55.10;;;;;;5113805;28;20281;-86
2023/05/01 07:47:17;;;;;;;;;;;19.90;54.80;;;;;;5094610;28;20296;-86
2023/05/01 07:49:43;;;;;;;;;;;19.90;54.80;;;;;;5112742;28;20353;-86
2023/05/01 07:52:11;;;;;;;;;;;19.90;54.80;;;;;;5095675;28;19919;-86
2023/05/01 07:54:36;;;;;;;;;;;19.90;54.70;;;;;;5096956;28;19915;-86
2023/05/01 07:57:04;;;;;;;;;;;20.10;54.50;;;;;;5095331;28;19908;-86
2023/05/01 07:59:30;;;;;;;;;;;20.20;54.20;;;;;;5095183;28;19954;-86
2023/05/01 08:01:55;;;;;;;;;;;20.40;54.10;;;;;;5093583;28;19974;-86
2023/05/01 08:04:21;;;;;;;;;;;20.50;53.80;;;;;;5093249;28;19915;-86
2023/05/01 08:06:50;;;;;;;;;;;20.50;53.70;;;;;;5102991;28;19908;-86
2023/05/01 08:09:16;;;;;;;;;;;20.50;53.70;;;;;;5096742;28;20281;-86
2023/05/01 08:11:41;;;;;;;;;;;20.60;53.60;;;;;;5113452;28;19908;-86
2023/05/01 08:14:07;;;;;;;;;;;20.70;53.40;;;;;;5130295;27;19994;-87
2023/05/01 08:16:34;;;;;;;;;;;20.90;53.20;;;;;;5113244;28;19907;-86
2023/05/01 08:19:00;;;;;;;;;;;20.80;53.00;;;;;;5095121;28;19919;-86
2023/05/01 08:21:25;;;;;;;;;;;20.70;53.10;;;;;;5128302;27;20196;-86
2023/05/01 08:23:54;;;;;;;;;;;20.60;53.20;;;;;;5094752;28;20010;-86
2023/05/01 08:26:20;;;;;;;;;;;20.50;53.40;;;;;;5094695;28;19908;-86
2023/05/01 08:28:46;;;;;;;;;;;20.30;53.50;;;;;;5094676;28;20200;-86
2023/05/01 08:31:12;;;;;;;;;;;20.30;53.70;;;;;;5111152;28;19930;-86
2023/05/01 08:33:40;;;;;;;;;;;20.20;53.80;;;;;;5095160;28;19908;-86
2023/05/01 08:36:09;;;;;;;;;;;20.10;53.90;;;;;;5113595;28;19919;-87
2023/05/01 08:38:35;;;;;;;;;;;20.10;54.00;;;;;;5095958;28;19908;-86
2023/05/01 08:41:02;;;;;;;;;;;20.10;54.20;;;;;;5095847;28;19923;-87
2023/05/01 08:43:31;;;;;;;;;;;20.10;54.30;;;;;;5095084;28;19915;-86
2023/05/01 08:46:00;;;;;;;;;;;20.10;54.50;;;;;;5110531;28;19992;-86
2023/05/01 08:48:27;;;;;;;;;;;20.00;54.50;;;;;;5092842;28;20324;-87
2023/05/01 08:50:54;;;;;;;;;;;20.00;54.80;;;;;;5091860;28;19908;-86
2023/05/01 08:53:21;;;;;;;;;;;20.00;54.90;;;;;;5092833;28;19908;-86
2023/05/01 08:55:47;;;;;;;;;;;20.00;55.10;;;;;;5111281;28;19918;-86
2023/05/01 08:58:13;;;;;;;;;;;20.00;55.10;;;;;;5110810;28;20219;-86
2023/05/01 09:00:40;;;;;;;;;;;20.00;55.00;;;;;;5092356;28;19927;-85
2023/05/01 09:03:07;;;;;;;;;;;20.10;55.00;;;;;;5094573;28;19911;-85
2023/05/01 09:05:51;;;;;;;;;;;20.30;55.00;;;;;;5110230;28;19912;-85
2023/05/01 09:08:17;;;;;;;;;;;20.70;54.60;;;;;;5112540;28;19908;-85
2023/05/01 09:10:45;;;;;;;;;;;21.30;53.90;;;;;;5093500;28;19908;-85
2023/05/01 09:13:11;;;;;;;;;;;22.30;53.10;;;;;;5110026;28;19929;-85
2023/05/01 09:15:37;;;;;;;;;;;23.60;51.40;;;;;;5111685;28;19908;-85
2023/05/01 09:18:03;;;;;;;;;;;24.30;50.30;;;;;;5092609;28;19908;-85
2023/05/01 09:20:29;;;;;;;;;;;24.90;49.40;;;;;;5110317;28;19916;-85
2023/05/01 09:22:58;;;;;;;;;;;25.40;48.60;;;;;;5114221;28;19908;-85
2023/05/01 09:25:23;;;;;;;;;;;25.70;48.20;;;;;;5092589;28;20276;-85
2023/05/01 09:27:49;;;;;;;;;;;26.00;47.60;;;;;;5092797;28;19915;-85
2023/05/01 09:30:31;;;;;;;;;;;25.90;47.30;;;;;;5093762;28;20249;-85
2023/05/01 09:33:24;;;;;;;;;;;25.60;47.40;;;;;;5092803;28;19915;-85
2023/05/01 09:35:53;;;;;;;;;;;24.90;47.80;;;;;;5111109;28;20159;-85
2023/05/01 09:38:23;;;;;;;;;;;24.40;48.30;;;;;;5112432;28;19907;-85
2023/05/01 09:40:49;;;;;;;;;;;24.00;48.70;;;;;;5095739;28;20181;-85
2023/05/01 09:43:28;;;;;;;;;;;23.80;49.10;;;;;;5096037;28;19972;-85
2023/05/01 09:46:04;;;;;;;;;;;23.60;49.40;;;;;;5096055;28;19908;-85
2023/05/01 09:48:30;;;;;;;;;;;23.80;49.50;;;;;;5113629;28;19939;-84
2023/05/01 09:50:56;;;;;;;;;;;23.90;49.30;;;;;;5095800;28;19915;-84
2023/05/01 09:53:37;;;;;;;;;;;23.90;49.30;;;;;;5111910;28;20159;-84
2023/05/01 09:56:03;;;;;;;;;;;24.20;49.30;;;;;;5095814;28;19908;-85
2023/05/01 09:58:29;;;;;;;;;;;24.30;48.90;;;;;;5092672;28;19970;-85
2023/05/01 10:00:55;;;;;;;;;;;24.30;48.90;;;;;;5093023;28;19911;-85
2023/05/01 10:03:20;;;;;;;;;;;24.40;48.90;;;;;;5094171;28;20188;-84
2023/05/01 10:05:46;;;;;;;;;;;24.50;48.60;;;;;;5096528;28;20384;-85
2023/05/01 10:08:13;;;;;;;;;;;24.70;48.60;;;;;;5092587;28;19907;-84
2023/05/01 10:10:39;;;;;;;;;;;25.10;48.20;;;;;;5110593;28;19908;-84
2023/05/01 10:13:17;;;;;;;;;;;25.10;48.00;;;;;;5091844;28;20269;-85
2023/05/01 10:15:45;;;;;;;;;;;24.80;48.10;;;;;;5127551;27;19915;-85
2023/05/01 10:18:11;;;;;;;;;;;24.40;48.40;;;;;;5091899;28;19961;-85
2023/05/01 10:20:37;;;;;;;;;;;24.00;48.80;;;;;;5091564;28;19916;-85
2023/05/01 10:23:02;;;;;;;;;;;23.60;49.30;;;;;;5123362;27;20081;-85
2023/05/01 10:25:28;;;;;;;;;;;23.40;49.50;;;;;;5093044;28;20058;-85
2023/05/01 10:27:54;;;;;;;;;;;23.30;49.80;;;;;;5110827;28;19994;-85
2023/05/01 10:30:20;;;;;;;;;;;23.20;50.10;;;;;;5109457;28;20326;-85
2023/05/01 10:32:46;;;;;;;;;;;23.10;50.30;;;;;;5092721;28;19915;-85
2023/05/01 10:35:13;;;;;;;;;;;22.90;50.50;;;;;;5092382;28;19968;-85
2023/05/01 10:37:55;;;;;;;;;;;22.80;50.70;;;;;;5094505;28;19908;-84
2023/05/01 10:40:40;;;;;;;;;;;22.80;50.80;;;;;;5094243;28;20006;-85
2023/05/01 10:43:11;;;;;;;;;;;22.80;51.00;;;;;;5111533;28;20220;-85
2023/05/01 10:45:37;;;;;;;;;;;22.60;51.10;;;;;;5094923;28;19915;-84
2023/05/01 10:48:03;;;;;;;;;;;22.60;51.30;;;;;;5091453;28;19908;-85
2023/05/01 10:50:29;;;;;;;;;;;22.50;51.40;;;;;;5093274;28;19943;-85
2023/05/01 10:53:13;;;;;;;;;;;22.50;51.40;;;;;;5112046;28;20263;-85
2023/05/01 10:55:41;;;;;;;;;;;22.50;51.60;;;;;;5093489;28;19965;-84
2023/05/01 10:58:07;;;;;;;;;;;22.40;51.70;;;;;;5091776;28;19923;-85
2023/05/01 11:00:33;;;;;;;;;;;22.30;51.90;;;;;;5110634;28;19926;-85
2023/05/01 11:03:17;;;;;;;;;;;22.20;52.00;;;;;;5092821;28;19999;-85
2023/05/01 11:05:58;;;;;;;;;;;22.10;52.20;;;;;;5111535;28;20366;-85
2023/05/01 11:08:34;;;;;;;;;;;22.10;52.30;;;;;;5098779;28;19908;-84
2023/05/01 11:11:18;;;;;;;;;;;22.10;52.40;;;;;;5111485;28;20002;-85
2023/05/01 11:14:03;;;;;;;;;;;22.00;52.50;;;;;;5093952;28;20282;-84
2023/05/01 11:16:40;;;;;;;;;;;22.00;52.60;;;;;;5092222;28;19908;-84
2023/05/01 11:19:07;;;;;;;;;;;22.00;52.70;;;;;;5109858;28;20365;-84
2023/05/01 11:21:37;;;;;;;;;;;22.00;52.80;;;;;;5112404;28;20060;-85
2023/05/01 11:24:08;;;;;;;;;;;22.00;52.90;;;;;;5110192;28;20012;-84
2023/05/01 11:26:38;;;;;;;;;;;22.00;53.00;;;;;;5126650;27;19934;-85
2023/05/01 11:29:04;;;;;;;;;;;21.90;53.00;;;;;;5093495;28;19908;-84
2023/05/01 11:31:30;;;;;;;;;;;21.90;53.10;;;;;;5092685;28;20262;-85
2023/05/01 11:33:56;;;;;;;;;;;21.90;53.30;;;;;;5092051;28;20436;-85
2023/05/01 11:36:22;;;;;;;;;;;21.90;53.30;;;;;;5092255;28;19908;-84
2023/05/01 11:38:58;;;;;;;;;;;21.90;53.50;;;;;;5092995;28;19923;-85
2023/05/01 11:41:25;;;;;;;;;;;21.80;53.50;;;;;;5092381;28;19912;-85
2023/05/01 11:43:52;;;;;;;;;;;21.80;53.60;;;;;;5092203;28;20293;-85
2023/05/01 11:46:24;;;;;;;;;;;21.70;53.60;;;;;;5091699;28;19911;-85
2023/05/01 11:48:49;;;;;;;;;;;21.70;53.80;;;;;;5111708;28;19908;-85
2023/05/01 11:51:15;;;;;;;;;;;21.60;53.90;;;;;;5093112;28;19972;-85
2023/05/01 11:53:41;;;;;;;;;;;21.60;54.10;;;;;;5090296;28;20157;-85
2023/05/01 11:56:20;;;;;;;;;;;21.60;54.20;;;;;;5109393;28;19985;-85
2023/05/01 11:58:46;;;;;;;;;;;21.60;54.20;;;;;;5090329;28;19951;-85
2023/05/01 12:01:13;;;;;;;;;;;21.60;54.30;;;;;;5091958;28;19912;-84
2023/05/01 12:03:41;;;;;;;;;;;21.60;54.40;;;;;;5088211;28;19907;-85
2023/05/01 12:06:08;;;;;;;;;;;21.60;54.40;;;;;;5089905;28;19958;-84
2023/05/01 12:08:34;;;;;;;;;;;21.60;54.50;;;;;;5090040;28;19920;-85
2023/05/01 12:11:31;;;;;;;;;;;21.60;54.60;;;;;;5109393;28;19912;-84
2023/05/01 12:13:58;;;;;;;;;;;21.60;54.60;;;;;;5110935;28;19927;-85
2023/05/01 12:16:24;;;;;;;;;;;21.60;54.70;;;;;;5088981;28;20082;-84
2023/05/01 12:18:51;;;;;;;;;;;21.70;54.70;;;;;;5089773;28;20301;-85
2023/05/01 12:21:17;;;;;;;;;;;21.70;54.70;;;;;;5091289;28;20292;-85
2023/05/01 12:23:42;;;;;;;;;;;21.70;54.70;;;;;;5091370;28;19908;-85
2023/05/01 12:26:26;;;;;;;;;;;21.70;54.70;;;;;;5107581;28;20229;-85
2023/05/01 12:28:52;;;;;;;;;;;21.70;54.80;;;;;;5092272;28;20296;-85
2023/05/01 12:31:29;;;;;;;;;;;21.70;54.90;;;;;;5108506;28;19961;-85
2023/05/01 12:34:05;;;;;;;;;;;21.70;55.00;;;;;;5091636;28;19973;-84
2023/05/01 12:36:32;;;;;;;;;;;21.60;55.00;;;;;;5108052;28;19908;-84
2023/05/01 12:39:05;;;;;;;;;;;21.60;55.10;;;;;;5089286;28;19915;-85
2023/05/01 12:41:51;;;;;;;;;;;21.60;55.10;;;;;;5091830;28;20285;-84
2023/05/01 12:44:21;;;;;;;;;;;21.60;55.20;;;;;;5108374;28;19961;-85
2023/05/01 12:46:56;;;;;;;;;;;21.60;55.30;;;;;;5090343;28;19919;-84
2023/05/01 12:49:22;;;;;;;;;;;21.60;55.40;;;;;;5091872;28;20053;-84
2023/05/01 12:51:48;;;;;;;;;;;21.50;55.40;;;;;;5107885;28;20197;-84
2023/05/01 12:54:33;;;;;;;;;;;21.50;55.50;;;;;;5092367;28;19973;-85
2023/05/01 12:57:06;;;;;;;;;;;21.50;55.70;;;;;;5095742;28;19908;-84
2023/05/01 12:59:32;;;;;;;;;;;21.40;55.70;;;;;;5094835;28;19916;-85
2023/05/01 13:01:59;;;;;;;;;;;21.40;55.80;;;;;;5094923;28;19919;-86
2023/05/01 13:04:25;;;;;;;;;;;21.40;55.90;;;;;;5111557;28;20001;-85
2023/05/01 13:06:54;;;;;;;;;;;21.40;56.00;;;;;;5093786;28;20422;-85
2023/05/01 13:09:23;;;;;;;;;;;21.30;56.10;;;;;;5094154;28;20296;-85
2023/05/01 13:11:56;;;;;;;;;;;21.30;56.10;;;;;;5113039;28;20115;-85
2023/05/01 13:14:22;;;;;;;;;;;21.30;56.20;;;;;;5112115;28;20261;-85
2023/05/01 13:16:47;;;;;;;;;;;21.30;56.30;;;;;;5129283;27;19912;-85
2023/05/01 13:19:27;;;;;;;;;;;21.30;56.40;;;;;;5110955;28;20170;-85
2023/05/01 13:21:53;;;;;;;;;;;21.30;56.40;;;;;;5094531;28;20011;-86
2023/05/01 13:24:19;;;;;;;;;;;21.30;56.50;;;;;;5095761;28;19971;-85
2023/05/01 13:26:44;;;;;;;;;;;21.30;56.50;;;;;;5090903;28;20106;-85
2023/05/01 13:29:13;;;;;;;;;;;21.30;56.60;;;;;;5089827;28;19919;-85
2023/05/01 13:31:41;;;;;;;;;;;21.30;56.60;;;;;;5089526;28;19919;-85
2023/05/01 13:34:07;;;;;;;;;;;21.30;56.60;;;;;;5090831;28;19912;-84
2023/05/01 13:36:33;;;;;;;;;;;21.30;56.70;;;;;;5107472;28;20332;-85
2023/05/01 13:38:58;;;;;;;;;;;21.30;56.70;;;;;;5089671;28;19908;-85
2023/05/01 13:41:25;;;;;;;;;;;21.30;56.70;;;;;;5090786;28;19919;-85
2023/05/01 13:43:52;;;;;;;;;;;21.30;56.70;;;;;;5092590;28;19907;-86
2023/05/01 13:46:20;;;;;;;;;;;21.30;56.80;;;;;;5092487;28;20188;-86
2023/05/01 13:48:46;;;;;;;;;;;21.30;57.20;;;;;;5091048;28;20225;-85
2023/05/01 13:51:12;;;;;;;;;;;21.30;56.90;;;;;;5091804;28;19907;-85
2023/05/01 13:53:41;;;;;;;;;;;21.30;56.90;;;;;;5094688;28;19915;-85
2023/05/01 13:56:08;;;;;;;;;;;21.30;56.90;;;;;;5094860;28;20051;-85
2023/05/01 13:58:33;;;;;;;;;;;21.30;56.90;;;;;;5093028;28;19928;-85
2023/05/01 14:01:00;;;;;;;;;;;21.30;56.90;;;;;;5090969;28;19973;-85
2023/05/01 14:03:26;;;;;;;;;;;21.30;56.90;;;;;;5126125;27;19987;-85
2023/05/01 14:05:52;;;;;;;;;;;21.30;56.90;;;;;;5091405;28;20190;-85
2023/05/01 14:08:21;;;;;;;;;;;21.30;56.90;;;;;;5091394;28;19944;-85
2023/05/01 14:10:47;;;;;;;;;;;21.40;57.00;;;;;;5089081;28;19908;-85
2023/05/01 14:13:15;;;;;;;;;;;21.40;56.90;;;;;;5092651;28;20154;-86
2023/05/01 14:15:44;;;;;;;;;;;21.40;56.90;;;;;;5110954;28;19908;-85
2023/05/01 14:18:15;;;;;;;;;;;21.40;56.90;;;;;;5127812;27;20010;-85
2023/05/01 14:20:43;;;;;;;;;;;21.40;56.80;;;;;;5125170;27;19912;-85